Time;durP1;ratioP1;P1;durP2;ratioP2;P2;SDS_P1;SDS_P2;PMS_P1;PMS_P2;Temp;Humidity;BMP_temperature;BMP_pressure;BME280_temperature;BME280_humidity;BME280_pressure;Samples;Min_cycle;Max_cycle;Signal;HPM_P1;HPM_P2
2022/11/16 00:01:33;;;;;;;91.05;31.05;;;;;;;8.47;89.09;99208.72;4302580;33;34258;-77
2022/11/16 00:04:02;;;;;;;99.03;33.58;;;;;;;8.15;91.55;99203.06;4303848;33;33979;-77
2022/11/16 00:06:29;;;;;;;82.90;32.38;;;;;;;8.65;89.13;99201.37;4291107;33;33657;-76
2022/11/16 00:11:47;;;;;;;87.20;31.90;;;;;;;8.31;91.50;99191.41;4291516;33;33579;-78
2022/11/16 00:14:15;;;;;;;80.72;29.65;;;;;;;8.28;90.85;99196.50;4303891;33;33692;-76
2022/11/16 00:16:42;;;;;;;84.25;31.20;;;;;;;8.69;88.34;99189.81;4303184;33;34302;-77
2022/11/16 00:19:11;;;;;;;83.82;33.42;;;;;;;8.67;88.79;99191.13;4303614;33;34478;-78
2022/11/16 00:21:38;;;;;;;91.22;32.63;;;;;;;8.27;92.15;99184.87;4303792;33;34320;-81
2022/11/16 00:24:06;;;;;;;78.03;31.15;;;;;;;8.73;88.81;99182.84;4287125;33;33910;-76
2022/11/16 00:26:34;;;;;;;91.80;30.67;;;;;;;8.40;91.15;99183.69;4284578;33;34184;-76
2022/11/16 00:29:01;;;;;;;79.97;31.33;;;;;;;8.45;90.21;99181.12;4303752;33;34010;-77
2022/11/16 00:31:28;;;;;;;81.85;28.90;;;;;;;8.56;90.01;99173.97;4302747;33;34209;-77
2022/11/16 00:33:56;;;;;;;81.07;30.08;;;;;;;8.30;91.70;99170.06;4301865;33;34685;-83
2022/11/16 00:36:23;;;;;;;73.28;31.65;;;;;;;8.13;91.91;99167.38;4303806;33;34838;-76
2022/11/16 00:38:52;;;;;;;74.47;31.25;;;;;;;8.33;91.59;99169.53;4290382;33;34663;-78
2022/11/16 00:41:20;;;;;;;75.85;31.42;;;;;;;8.38;91.18;99170.44;4288415;33;34411;-77
2022/11/16 00:43:47;;;;;;;71.93;30.55;;;;;;;8.14;92.61;99171.69;4290481;33;34695;-75
2022/11/16 00:46:15;;;;;;;77.90;29.08;;;;;;;8.49;89.72;99162.47;4287856;33;34991;-76
2022/11/16 00:48:42;;;;;;;73.65;30.02;;;;;;;8.44;90.66;99157.03;4303972;33;34781;-77
2022/11/16 00:51:10;;;;;;;77.62;29.60;;;;;;;8.50;90.37;99159.53;4297658;33;33097;-77
2022/11/16 00:53:37;;;;;;;68.00;28.62;;;;;;;8.31;91.50;99148.16;4293595;33;33700;-78
2022/11/16 00:56:05;;;;;;;71.50;30.23;;;;;;;8.42;91.14;99143.75;4296279;33;34692;-76
2022/11/16 00:58:34;;;;;;;69.25;29.25;;;;;;;8.35;91.82;99138.50;4293753;33;34335;-84
2022/11/16 01:01:04;;;;;;;74.18;28.23;;;;;;;8.76;88.86;99136.34;4296463;33;34572;-85
2022/11/16 01:03:33;;;;;;;71.93;28.58;;;;;;;8.62;89.41;99140.53;4283925;33;34149;-84
2022/11/16 01:06:07;;;;;;;71.07;28.90;;;;;;;8.19;92.67;99132.06;4295791;33;35088;-83
2022/11/16 01:08:37;;;;;;;77.37;30.15;;;;;;;8.41;91.85;99128.59;4282786;33;32801;-84
2022/11/16 01:13:53;;;;;;;79.25;28.30;;;;;;;8.18;93.40;99130.41;4283980;33;34547;-83
2022/11/16 01:16:21;;;;;;;66.85;29.20;;;;;;;8.07;93.37;99119.72;4282619;33;34284;-82
2022/11/16 01:18:53;;;;;;;72.35;30.02;;;;;;;8.34;91.96;99122.53;4281333;33;34635;-83
2022/11/16 01:21:22;;;;;;;72.97;29.42;;;;;;;8.54;91.18;99120.12;4294319;33;34174;-82
2022/11/16 01:23:49;;;;;;;70.35;30.33;;;;;;;8.65;89.93;99104.84;4282351;33;34893;-83
2022/11/16 01:26:17;;;;;;;80.10;30.27;;;;;;;8.27;92.01;99108.38;4280173;33;34251;-83
2022/11/16 01:28:45;;;;;;;66.95;30.23;;;;;;;8.35;91.61;99092.53;4281795;33;34682;-83
2022/11/16 01:31:12;;;;;;;77.65;29.30;;;;;;;8.17;93.07;99095.56;4294102;33;33231;-85
2022/11/16 01:33:40;;;;;;;80.62;29.67;;;;;;;8.21;91.91;99088.59;4296054;33;34005;-83
2022/11/16 01:36:13;;;;;;;71.72;29.52;;;;;;;8.54;91.01;99094.97;4296403;33;34409;-84
2022/11/16 01:38:42;;;;;;;73.78;30.15;;;;;;;8.68;89.98;99095.41;4293780;33;33935;-79
2022/11/16 01:41:14;;;;;;;70.12;27.75;;;;;;;8.21;91.86;99089.41;4282133;33;34252;-79
2022/11/16 01:44:03;;;;;;;75.25;30.10;;;;;;;8.37;92.58;99089.59;4278284;33;34590;-79
2022/11/16 01:46:31;;;;;;;70.18;31.58;;;;;;;8.36;92.47;99082.56;4282897;33;34204;-84
2022/11/16 01:49:21;;;;;;;72.20;29.95;;;;;;;8.34;93.10;99072.00;4276722;33;34041;-84
2022/11/16 01:51:54;;;;;;;68.22;26.77;;;;;;;8.59;90.72;99074.22;4273932;33;34400;-78
2022/11/16 01:54:22;;;;;;;69.72;29.40;;;;;;;8.39;91.96;99068.53;4269074;33;34032;-83
2022/11/16 01:56:51;;;;;;;68.22;27.23;;;;;;;8.32;92.24;99066.03;4279774;33;35148;-85
2022/11/16 01:59:19;;;;;;;71.68;27.70;;;;;;;8.31;92.78;99063.56;4267774;33;34820;-85
2022/11/16 02:01:47;;;;;;;71.03;27.58;;;;;;;8.32;93.17;99065.22;4280800;33;33525;-77
2022/11/16 02:04:16;;;;;;;76.30;28.95;;;;;;;8.41;91.98;99056.44;4267916;33;33963;-84
2022/11/16 02:06:55;;;;;;;73.95;28.23;;;;;;;8.47;91.56;99054.63;4279919;33;34284;-83
2022/11/16 02:09:52;;;;;;;66.35;27.92;;;;;;;8.58;91.09;99055.56;4280268;33;34011;-83
2022/11/16 02:12:37;;;;;;;65.03;27.20;;;;;;;8.79;89.40;99046.59;4267697;33;33657;-83
2022/11/16 02:15:32;;;;;;;63.90;25.52;;;;;;;8.45;92.29;99045.12;4269429;33;34497;-85
2022/11/16 02:18:10;;;;;;;61.72;26.92;;;;;;;8.36;93.06;99047.44;4279558;33;35087;-85
2022/11/16 02:21:13;;;;;;;68.47;25.90;;;;;;;8.45;91.79;99045.12;4281010;33;33884;-83
2022/11/16 02:23:59;;;;;;;66.40;26.12;;;;;;;8.64;90.75;99041.03;4281087;33;34539;-83
2022/11/16 02:26:56;;;;;;;64.03;25.50;;;;;;;8.53;91.40;99036.56;4270733;33;33758;-84
2022/11/16 02:29:36;;;;;;;69.80;27.42;;;;;;;8.45;92.29;99035.13;4268569;33;32321;-84
2022/11/16 02:32:08;;;;;;;68.00;27.48;;;;;;;8.72;91.10;99034.34;4271125;33;33827;-76
2022/11/16 02:34:43;;;;;;;62.15;24.85;;;;;;;8.73;90.22;99030.59;4282566;33;34396;-76
2022/11/16 02:37:13;;;;;;;57.83;24.67;;;;;;;8.62;90.30;99029.66;4268723;33;33956;-83
2022/11/16 02:39:43;;;;;;;60.35;26.25;;;;;;;8.52;91.70;99018.72;4267308;33;34947;-84
2022/11/16 02:42:15;;;;;;;63.47;23.98;;;;;;;8.59;91.23;99014.72;4268953;33;34790;-84
2022/11/16 02:44:44;;;;;;;60.83;25.20;;;;;;;8.47;91.96;99010.56;4269547;33;33714;-81
2022/11/16 02:47:18;;;;;;;54.42;25.60;;;;;;;8.46;91.45;99019.72;4269564;33;33763;-83
2022/11/16 02:49:51;;;;;;;52.05;24.55;;;;;;;9.07;88.37;99012.25;4262700;33;34932;-83
2022/11/16 02:52:19;;;;;;;60.72;24.27;;;;;;;9.07;87.56;99008.72;4289232;33;34718;-83
2022/11/16 02:54:47;;;;;;;55.97;26.00;;;;;;;8.95;89.03;99012.41;4287598;33;34346;-84
2022/11/16 02:57:36;;;;;;;51.15;24.52;;;;;;;8.90;88.94;99016.94;4285449;33;34692;-81
2022/11/16 03:00:07;;;;;;;54.40;25.15;;;;;;;8.65;90.74;98998.56;4288890;33;34795;-77
2022/11/16 03:02:42;;;;;;;54.30;23.77;;;;;;;8.67;91.54;98988.31;4291269;33;33736;-82
2022/11/16 03:05:48;;;;;;;59.00;24.95;;;;;;;8.77;89.83;98996.53;4303906;33;33838;-82
2022/11/16 03:08:24;;;;;;;51.28;23.70;;;;;;;8.78;89.46;98998.16;4282637;33;33945;-80
2022/11/16 03:13:41;;;;;;;50.72;24.02;;;;;;;8.70;91.00;98995.91;4292568;33;33504;-80
2022/11/16 03:16:12;;;;;;;49.13;22.45;;;;;;;8.73;90.92;98998.94;4285366;33;33465;-83
2022/11/16 03:18:40;;;;;;;56.55;23.25;;;;;;;8.73;90.86;98988.13;4290193;33;34523;-77
2022/11/16 03:21:26;;;;;;;59.72;23.38;;;;;;;8.74;89.02;98988.94;4277453;33;35211;-77
2022/11/16 03:23:53;;;;;;;54.15;23.85;;;;;;;8.58;91.09;98983.38;4290361;33;33846;-77
2022/11/16 03:26:24;;;;;;;55.15;23.55;;;;;;;9.17;88.10;98984.44;4277211;33;33509;-77
2022/11/16 03:29:18;;;;;;;57.78;23.25;;;;;;;8.79;89.91;98981.69;4285328;33;33930;-78
2022/11/16 03:31:51;;;;;;;54.05;22.70;;;;;;;9.24;87.95;98971.50;4280220;33;35136;-84
2022/11/16 03:34:21;;;;;;;45.38;22.20;;;;;;;9.28;87.26;98972.63;4304585;33;34297;-79
2022/11/16 03:36:51;;;;;;;51.83;24.23;;;;;;;8.98;88.44;98976.69;4291544;33;33720;-83
2022/11/16 03:39:23;;;;;;;55.75;22.85;;;;;;;9.24;86.73;98961.50;4291660;33;34028;-77
2022/11/16 03:41:52;;;;;;;57.85;21.75;;;;;;;9.10;87.81;98964.91;4291453;33;34022;-77
2022/11/16 03:44:20;;;;;;;59.70;22.85;;;;;;;9.30;87.09;98962.34;4290727;33;33601;-79
2022/11/16 03:46:47;;;;;;;55.20;22.85;;;;;;;9.15;87.71;98954.94;4291289;33;34357;-84
2022/11/16 03:49:19;;;;;;;63.08;23.55;;;;;;;8.68;90.66;98961.00;4303592;33;33832;-80
2022/11/16 03:51:48;;;;;;;57.58;23.62;;;;;;;8.85;89.69;98951.97;4302281;33;34095;-83
2022/11/16 03:54:16;;;;;;;65.07;24.63;;;;;;;8.73;91.26;98954.84;4291797;33;34036;-84
2022/11/16 03:56:43;;;;;;;77.53;23.98;;;;;;;8.67;91.24;98951.28;4304564;33;34437;-85
2022/11/16 03:59:11;;;;;;;61.20;25.50;;;;;;;8.56;92.22;98944.13;4302569;33;33934;-82
2022/11/16 04:01:39;;;;;;;81.55;22.62;;;;;;;8.79;90.91;98945.69;4303734;33;33787;-83
2022/11/16 04:24:10;;;;;;;80.70;24.73;;;;;;;8.16;94.12;98940.72;4301317;33;34051;-78
2022/11/16 04:29:14;;;;;;;79.28;24.55;;;;;;;8.75;92.09;98914.84;4304375;33;34487;-82
2022/11/16 04:40:03;;;;;;;76.62;27.23;;;;;;;8.76;90.90;98906.47;4303700;33;33618;-79
2022/11/16 04:42:31;;;;;;;75.62;27.23;;;;;;;8.75;92.20;98901.31;4303448;33;33927;-81
2022/11/16 04:47:47;;;;;;;99.82;26.00;;;;;;;8.91;91.07;98907.66;4284403;33;33493;-81
2022/11/16 04:50:15;;;;;;;90.07;28.48;;;;;;;8.52;93.29;98910.56;4303260;33;33564;-82
2022/11/16 04:52:43;;;;;;;103.03;26.10;;;;;;;8.69;93.30;98905.06;4302870;33;34054;-82
2022/11/16 04:55:11;;;;;;;120.57;25.52;;;;;;;8.58;94.04;98901.44;4303290;33;34747;-82
2022/11/16 04:57:39;;;;;;;91.82;25.20;;;;;;;8.41;94.20;98898.84;4290904;33;32481;-81
2022/11/16 05:00:07;;;;;;;97.93;26.48;;;;;;;8.61;93.43;98903.63;4301915;33;33868;-80
2022/11/16 05:02:35;;;;;;;92.55;27.85;;;;;;;8.61;94.02;98892.81;4289913;33;34936;-82
2022/11/16 05:05:03;;;;;;;94.85;26.98;;;;;;;8.89;92.23;98897.09;4288612;33;34687;-82
2022/11/16 05:07:30;;;;;;;92.50;25.20;;;;;;;8.87;91.33;98890.31;4291975;33;33708;-80
2022/11/16 05:09:59;;;;;;;97.60;26.62;;;;;;;8.28;95.52;98893.81;4275895;33;33303;-81
2022/11/16 05:12:27;;;;;;;91.78;24.87;;;;;;;8.34;95.82;98887.41;4289514;33;33577;-82
2022/11/16 05:14:54;;;;;;;82.20;26.08;;;;;;;8.48;95.07;98894.03;4276647;33;34040;-82
2022/11/16 05:17:23;;;;;;;93.03;26.23;;;;;;;8.37;95.77;98895.78;4266576;33;34119;-81
2022/11/16 05:22:39;;;;;;;99.65;27.48;;;;;;;8.56;94.02;98900.88;4266682;33;34560;-82
2022/11/16 05:25:08;;;;;;;102.50;27.58;;;;;;;8.58;95.75;98888.72;4288886;33;34930;-83
2022/11/16 05:27:36;;;;;;;97.35;26.00;;;;;;;8.71;93.99;98876.69;4276219;33;34007;-83
2022/11/16 05:30:05;;;;;;;102.60;25.15;;;;;;;8.72;93.06;98874.78;4276559;33;34426;-82
2022/11/16 05:32:33;;;;;;;94.30;25.90;;;;;;;8.54;93.70;98882.22;4275529;33;34519;-81
2022/11/16 05:35:00;;;;;;;101.18;26.75;;;;;;;8.87;92.00;98883.00;4283397;33;34045;-82
2022/11/16 05:37:29;;;;;;;100.22;27.55;;;;;;;8.81;92.47;98876.75;4288213;33;33978;-83
2022/11/16 05:39:56;;;;;;;79.05;26.87;;;;;;;8.94;91.40;98870.09;4288967;33;33629;-82
2022/11/16 05:42:25;;;;;;;88.45;25.80;;;;;;;8.74;92.25;98862.62;4289184;33;33763;-79
2022/11/16 05:44:53;;;;;;;96.10;26.92;;;;;;;8.54;93.83;98857.87;4289214;33;33980;-82
2022/11/16 05:47:20;;;;;;;92.30;26.65;;;;;;;8.03;99.01;98854.62;4275644;33;34001;-77
2022/11/16 05:49:47;;;;;;;96.75;27.20;;;;;;;8.35;95.51;98849.28;4276161;33;34229;-78
2022/11/16 05:52:15;;;;;;;100.12;27.45;;;;;;;8.52;95.47;98860.00;4288786;33;34604;-84
2022/11/16 05:54:44;;;;;;;106.20;25.73;;;;;;;8.28;97.00;98854.09;4288839;33;34840;-84
2022/11/16 05:57:11;;;;;;;88.62;26.15;;;;;;;8.52;95.67;98846.50;4285915;33;34903;-81
2022/11/16 05:59:39;;;;;;;105.35;24.55;;;;;;;8.36;95.44;98853.62;4275827;33;35834;-77
2022/11/16 06:02:06;;;;;;;85.57;26.23;;;;;;;8.70;94.06;98861.50;4276127;33;33806;-78
2022/11/16 06:04:34;;;;;;;94.65;27.13;;;;;;;8.98;92.42;98859.56;4276090;33;34963;-78
2022/11/16 06:07:01;;;;;;;78.90;25.12;;;;;;;9.13;90.32;98856.94;4285627;33;33800;-83
2022/11/16 06:09:29;;;;;;;98.75;24.12;;;;;;;8.78;92.17;98854.81;4290515;33;33787;-86
2022/11/16 06:11:58;;;;;;;80.00;25.50;;;;;;;8.91;91.04;98850.84;4289785;33;34784;-85
2022/11/16 06:14:27;;;;;;;79.50;27.62;;;;;;;8.95;92.68;98852.78;4285527;33;34277;-73
2022/11/16 06:16:54;;;;;;;107.87;27.60;;;;;;;8.97;92.35;98850.63;4285517;33;33779;-72
2022/11/16 06:19:22;;;;;;;104.25;28.05;;;;;;;8.55;94.91;98848.69;4286816;33;33291;-76
2022/11/16 06:21:57;;;;;;;80.15;26.25;;;;;;;8.59;96.15;98846.28;4289493;33;34761;-78
2022/11/16 06:24:25;;;;;;;77.50;25.70;;;;;;;8.98;92.43;98857.66;4287357;33;34965;-70
2022/11/16 06:26:53;;;;;;;95.78;26.15;;;;;;;8.92;92.43;98849.78;4277741;33;34758;-71
2022/11/16 06:29:21;;;;;;;89.28;27.13;;;;;;;8.87;92.29;98847.84;4286640;33;33578;-73
2022/11/16 06:31:50;;;;;;;95.97;27.52;;;;;;;9.06;91.04;98844.75;4289265;33;34740;-75
2022/11/16 06:34:17;;;;;;;112.50;27.58;;;;;;;8.86;92.51;98846.22;4288675;33;35085;-71
2022/11/16 06:36:45;;;;;;;87.35;27.33;;;;;;;8.81;91.37;98844.31;4280966;33;34609;-76
2022/11/16 06:39:12;;;;;;;80.10;28.65;;;;;;;9.06;91.26;98844.75;4274895;33;33643;-72
2022/11/16 06:41:40;;;;;;;96.97;27.87;;;;;;;9.39;89.78;98846.28;4274833;33;33581;-70
2022/11/16 06:44:08;;;;;;;105.10;26.98;;;;;;;9.32;88.89;98837.56;4279210;33;34186;-70
2022/11/16 06:46:36;;;;;;;109.25;28.85;;;;;;;8.95;91.82;98841.16;4278981;33;33152;-72
2022/11/16 06:49:03;;;;;;;105.05;28.12;;;;;;;9.37;89.46;98829.47;4274147;33;33484;-72
2022/11/16 06:51:32;;;;;;;89.50;28.62;;;;;;;8.70;92.34;98831.75;4289162;33;35305;-70
2022/11/16 06:54:00;;;;;;;129.85;25.88;;;;;;;8.64;95.22;98832.81;4289054;33;35199;-75
2022/11/16 06:56:28;;;;;;;85.43;25.77;;;;;;;8.70;92.23;98828.25;4297552;33;33867;-77
2022/11/16 06:58:56;;;;;;;96.63;26.27;;;;;;;9.04;92.41;98821.44;4290107;33;33454;-72
2022/11/16 07:01:24;;;;;;;108.20;25.37;;;;;;;9.11;91.93;98818.50;4289622;33;34024;-70
2022/11/16 07:03:53;;;;;;;108.53;27.15;;;;;;;9.09;90.73;98819.84;4302519;33;35116;-73
2022/11/16 07:06:20;;;;;;;120.72;29.17;;;;;;;9.10;91.23;98821.50;4290113;33;33616;-70
2022/11/16 07:08:48;;;;;;;123.50;28.12;;;;;;;8.85;91.73;98830.25;4303009;33;33616;-69
2022/11/16 07:11:17;;;;;;;94.00;32.28;;;;;;;8.91;92.58;98815.69;4303464;33;34695;-70
2022/11/16 07:13:44;;;;;;;122.53;45.85;;;;;;;9.29;90.85;98811.84;4299819;33;34017;-73
2022/11/16 07:16:12;;;;;;;94.40;33.55;;;;;;;9.27;90.28;98816.72;4291548;33;34015;-74
2022/11/16 07:18:40;;;;;;;99.62;33.20;;;;;;;9.03;91.16;98819.03;4294825;33;33535;-76
2022/11/16 07:21:10;;;;;;;126.90;28.25;;;;;;;8.96;92.43;98810.31;4270795;33;33229;-75
2022/11/16 07:23:39;;;;;;;125.43;27.25;;;;;;;8.27;97.36;98806.53;4276920;33;34114;-78
2022/11/16 07:26:07;;;;;;;121.55;27.67;;;;;;;8.15;99.58;98809.38;4285378;33;34596;-79
2022/11/16 07:28:35;;;;;;;102.65;28.85;;;;;;;8.56;96.55;98817.06;4304343;33;34526;-72
2022/11/16 07:31:05;;;;;;;114.07;28.60;;;;;;;8.96;95.08;98805.72;4299209;33;33935;-73
2022/11/16 07:33:33;;;;;;;127.97;29.58;;;;;;;9.06;92.47;98806.84;4301134;33;34364;-72
2022/11/16 07:36:07;;;;;;;126.47;30.33;;;;;;;9.07;92.17;98797.66;4276708;33;34546;-73
2022/11/16 07:38:35;;;;;;;129.77;29.52;;;;;;;9.13;91.33;98797.41;4276149;33;33821;-71
2022/11/16 07:41:05;;;;;;;133.20;26.70;;;;;;;8.96;93.39;98796.78;4288760;33;33934;-71
2022/11/16 07:43:34;;;;;;;107.00;28.58;;;;;;;8.91;93.34;98796.75;4284471;33;33990;-72
2022/11/16 07:46:03;;;;;;;132.60;27.90;;;;;;;9.26;92.04;98796.13;4276510;33;34591;-72
2022/11/16 07:48:51;;;;;;;102.45;25.77;;;;;;;9.27;91.45;98794.25;4276257;33;34215;-71
2022/11/16 07:51:21;;;;;;;97.37;27.40;;;;;;;8.90;92.86;98785.12;4300223;33;33716;-72
2022/11/16 07:53:52;;;;;;;101.25;26.52;;;;;;;8.44;97.51;98784.78;4318547;33;34456;-71
2022/11/16 07:56:20;;;;;;;118.82;27.52;;;;;;;8.94;93.80;98783.53;4304839;33;33745;-71
2022/11/16 07:58:48;;;;;;;126.40;27.77;;;;;;;8.41;98.13;98777.22;4288564;33;32684;-74
2022/11/16 08:01:17;;;;;;;115.10;28.45;;;;;;;8.53;97.06;98779.72;4297320;33;33761;-74
2022/11/16 08:03:46;;;;;;;110.93;30.60;;;;;;;8.36;98.98;98774.44;4299825;33;34074;-73
2022/11/16 08:06:16;;;;;;;141.55;28.25;;;;;;;8.65;95.50;98774.94;4290965;33;34378;-71
2022/11/16 08:08:44;;;;;;;113.22;28.92;;;;;;;8.50;96.78;98778.34;4290037;33;33576;-74
2022/11/16 08:11:12;;;;;;;132.98;29.58;;;;;;;8.50;97.38;98770.25;4303600;33;34761;-72
2022/11/16 08:13:42;;;;;;;121.28;30.42;;;;;;;8.38;98.35;98770.41;4300966;33;35093;-72
2022/11/16 08:16:18;;;;;;;113.90;31.90;;;;;;;8.36;99.18;98777.16;4283388;33;33330;-72
2022/11/16 08:18:47;;;;;;;128.87;29.70;;;;;;;8.81;96.35;98784.81;4312188;33;33641;-74
2022/11/16 08:21:15;;;;;;;107.93;31.25;;;;;;;8.85;95.01;98782.37;4287929;33;34518;-74
2022/11/16 08:23:46;;;;;;;135.45;29.50;;;;;;;9.02;94.64;98779.50;4287852;33;34299;-72
2022/11/16 08:26:16;;;;;;;120.90;28.23;;;;;;;8.92;92.33;98779.44;4291579;33;34382;-72
2022/11/16 08:28:46;;;;;;;111.75;30.60;;;;;;;9.10;93.06;98775.50;4305158;33;33614;-73
2022/11/16 08:31:22;;;;;;;126.95;32.15;;;;;;;9.37;92.02;98776.16;4301175;33;33917;-72
2022/11/16 08:33:51;;;;;;;99.40;32.17;;;;;;;9.32;92.31;98780.72;4293142;33;34173;-76
2022/11/16 08:36:19;;;;;;;109.30;33.38;;;;;;;9.33;91.15;98777.78;4296834;33;33931;-76
2022/11/16 08:38:48;;;;;;;121.97;32.25;;;;;;;8.86;94.82;98765.09;4293127;33;33617;-73
2022/11/16 08:41:19;;;;;;;122.22;31.77;;;;;;;8.45;97.12;98764.00;4288622;33;34164;-75
2022/11/16 08:43:49;;;;;;;139.80;29.23;;;;;;;8.45;97.93;98772.13;4289957;33;34672;-73
2022/11/16 08:46:17;;;;;;;111.03;31.35;;;;;;;8.66;99.05;98767.66;4299974;33;35094;-73
2022/11/16 08:48:46;;;;;;;109.35;33.72;;;;;;;9.01;96.19;98764.34;4300764;33;34342;-73
2022/11/16 08:51:17;;;;;;;97.95;32.55;;;;;;;9.03;94.99;98770.31;4302906;33;33756;-73
2022/11/16 08:53:47;;;;;;;127.25;34.17;;;;;;;9.09;95.55;98766.53;4284533;33;33758;-74
2022/11/16 08:56:17;;;;;;;107.12;34.20;;;;;;;9.07;96.30;98766.03;4300383;33;33627;-75
2022/11/16 08:58:45;;;;;;;116.72;32.70;;;;;;;9.14;95.87;98763.88;4301465;33;34327;-73
2022/11/16 09:01:16;;;;;;;113.57;33.53;;;;;;;9.12;95.78;98759.81;4299885;33;33785;-71
2022/11/16 09:03:44;;;;;;;108.68;34.28;;;;;;;8.96;95.48;98758.91;4301895;33;35085;-71
2022/11/16 09:06:13;;;;;;;111.00;32.03;;;;;;;9.08;95.77;98756.00;4275704;33;33515;-71
2022/11/16 09:08:42;;;;;;;129.77;33.08;;;;;;;9.11;94.46;98758.97;4281938;33;32525;-74
2022/11/16 09:11:12;;;;;;;123.25;35.03;;;;;;;8.98;95.70;98756.75;4290127;33;33882;-74
2022/11/16 09:13:40;;;;;;;132.05;32.78;;;;;;;9.27;94.36;98753.66;4291184;33;33392;-73
2022/11/16 09:16:08;;;;;;;123.18;33.83;;;;;;;8.90;97.09;98749.13;4317315;33;33976;-73
2022/11/16 09:18:36;;;;;;;99.18;32.80;;;;;;;9.16;94.28;98753.59;4304771;33;34347;-73
2022/11/16 09:21:04;;;;;;;119.00;32.95;;;;;;;9.57;92.49;98748.34;4317436;33;33752;-73
2022/11/16 09:23:31;;;;;;;114.55;34.25;;;;;;;8.79;98.01;98735.56;4317649;33;34993;-72
2022/11/16 09:26:04;;;;;;;116.03;33.25;;;;;;;8.98;96.66;98735.09;4296176;33;33357;-71
2022/11/16 09:28:32;;;;;;;128.45;34.67;;;;;;;9.15;96.40;98734.91;4281028;33;33089;-71
2022/11/16 09:31:01;;;;;;;103.25;30.45;;;;;;;9.47;93.26;98742.87;4300065;33;34017;-72
2022/11/16 09:33:29;;;;;;;162.75;34.47;;;;;;;9.02;96.02;98741.63;4303512;33;35012;-71
2022/11/16 09:36:05;;;;;;;110.70;33.70;;;;;;;8.88;97.07;98746.69;4305808;33;34719;-73
2022/11/16 09:38:41;;;;;;;107.03;33.40;;;;;;;9.16;95.02;98742.78;4306285;33;33440;-74
2022/11/16 09:41:47;;;;;;;151.35;34.28;;;;;;;9.23;94.67;98743.34;4307868;33;34510;-73
2022/11/16 09:44:48;;;;;;;122.85;34.50;;;;;;;9.02;97.36;98731.59;4318071;33;34127;-72
2022/11/16 09:47:20;;;;;;;102.18;32.30;;;;;;;9.36;94.85;98731.22;4311956;33;34647;-75
2022/11/16 09:49:52;;;;;;;99.45;33.10;;;;;;;9.22;94.12;98728.19;4300737;33;33586;-73
2022/11/16 09:52:46;;;;;;;106.53;34.20;;;;;;;8.96;97.95;98729.16;4306398;33;33810;-73
2022/11/16 09:55:47;;;;;;;117.43;38.83;;;;;;;8.90;97.32;98724.78;4304652;33;35010;-71
2022/11/16 09:58:40;;;;;;;140.88;37.72;;;;;;;8.78;99.16;98714.19;4291419;33;34439;-84
2022/11/16 10:01:22;;;;;;;125.05;36.72;;;;;;;9.10;98.23;98705.16;4291264;33;33358;-79
2022/11/16 10:03:54;;;;;;;128.10;35.00;;;;;;;9.16;96.59;98701.38;4289936;33;34566;-80
2022/11/16 10:06:29;;;;;;;113.65;34.33;;;;;;;9.15;95.47;98697.84;4281024;33;34051;-82
2022/11/16 10:08:56;;;;;;;;;;;;;;;8.68;98.49;98701.41;4306011;33;33543;-76
2022/11/16 10:11:31;;;;;;;108.57;35.88;;;;;;;9.22;97.09;98698.44;4303467;33;32307;-76
2022/11/16 10:14:15;;;;;;;103.15;35.88;;;;;;;9.65;92.80;98698.25;4316125;33;33673;-72
2022/11/16 10:17:03;;;;;;;108.70;34.45;;;;;;;9.26;95.24;98692.47;4303754;33;35219;-75
2022/11/16 10:19:53;;;;;;;108.75;36.88;;;;;;;8.92;97.88;98693.72;4291241;33;34763;-73
2022/11/16 10:22:48;;;;;;;114.25;38.53;;;;;;;8.98;98.41;98689.91;4307015;33;33840;-73
2022/11/16 10:25:21;;;;;;;126.25;41.03;;;;;;;9.07;97.56;98681.31;4314822;33;34036;-71
2022/11/16 10:28:21;;;;;;;110.15;36.72;;;;;;;8.78;99.85;98677.13;4279961;33;33262;-83
2022/11/16 10:31:06;;;;;;;118.25;38.05;;;;;;;8.80;99.35;98666.87;4305263;33;34784;-80
2022/11/16 10:33:35;;;;;;;111.07;36.08;;;;;;;9.15;97.83;98670.78;4305424;33;34521;-73
2022/11/16 10:36:08;;;;;;;116.35;37.92;;;;;;;8.89;98.24;98663.66;4318877;33;34810;-75
2022/11/16 10:38:36;;;;;;;116.35;39.50;;;;;;;8.99;98.51;98661.81;4303932;33;34978;-75
2022/11/16 10:41:15;;;;;;;106.57;35.92;;;;;;;9.51;94.59;98661.94;4305056;33;34475;-78
2022/11/16 10:43:44;;;;;;;119.87;37.30;;;;;;;8.88;98.59;98653.94;4304891;33;33679;-76
2022/11/16 10:46:31;;;;;;;123.38;39.55;;;;;;;8.72;100.00;98647.62;4305007;33;33784;-72
2022/11/16 10:49:28;;;;;;;120.43;38.92;;;;;;;9.17;98.12;98646.97;4305639;33;34251;-81
2022/11/16 10:51:56;;;;;;;111.37;38.50;;;;;;;9.28;96.30;98633.47;4304171;33;33922;-82
2022/11/16 10:54:23;;;;;;;113.40;34.97;;;;;;;9.47;94.80;98634.59;4305324;33;32666;-79
2022/11/16 10:56:58;;;;;;;109.28;38.55;;;;;;;8.85;98.41;98630.09;4316941;33;33821;-79
2022/11/16 10:59:48;;;;;;;110.85;38.45;;;;;;;9.03;98.56;98632.34;4295906;33;34171;-78
2022/11/16 11:02:22;;;;;;;112.72;38.53;;;;;;;9.35;95.77;98625.91;4299297;33;34476;-72
2022/11/16 11:05:21;;;;;;;97.45;35.50;;;;;;;9.35;95.23;98626.72;4303148;33;33655;-78
2022/11/16 11:07:51;;;;;;;111.93;36.45;;;;;;;9.39;97.06;98616.16;4290336;33;34375;-78
2022/11/16 11:10:38;;;;;;;94.25;35.75;;;;;;;9.69;94.54;98622.69;4290466;33;34186;-72
2022/11/16 11:13:11;;;;;;;95.93;33.53;;;;;;;9.70;92.55;98617.00;4288830;33;34306;-72
2022/11/16 11:15:41;;;;;;;85.53;33.38;;;;;;;9.72;92.14;98628.37;4302838;33;33718;-73
2022/11/16 11:18:20;;;;;;;106.32;38.05;;;;;;;9.61;93.37;98618.62;4277898;33;33641;-72
2022/11/16 11:21:05;;;;;;;98.70;34.72;;;;;;;9.78;91.32;98613.75;4311747;33;34194;-75
2022/11/16 11:23:41;;;;;;;101.47;36.60;;;;;;;9.59;93.34;98615.34;4304401;33;32503;-76
2022/11/16 11:26:25;;;;;;;91.55;35.40;;;;;;;9.72;91.69;98614.84;4293008;33;82220;-72
2022/11/16 11:28:58;;;;;;;91.03;35.55;;;;;;;9.74;91.24;98595.59;4277314;33;33279;-73
2022/11/16 11:31:42;;;;;;;96.50;34.80;;;;;;;9.76;92.18;98598.84;4289348;33;35065;-73
2022/11/16 11:34:09;;;;;;;85.05;32.33;;;;;;;9.73;92.50;98586.66;4302561;33;34367;-73
2022/11/16 11:36:42;;;;;;;99.75;42.42;;;;;;;9.60;94.07;98585.31;4302945;33;34417;-76
2022/11/16 11:39:09;;;;;;;89.13;34.50;;;;;;;10.26;89.56;98581.72;4303382;33;33878;-78
2022/11/16 11:41:43;;;;;;;90.18;34.65;;;;;;;9.99;90.31;98582.03;4302930;33;33974;-77
2022/11/16 11:44:18;;;;;;;83.37;36.42;;;;;;;9.95;90.67;98580.12;4288596;33;33972;-77
2022/11/16 11:46:50;;;;;;;86.85;35.88;;;;;;;9.57;93.81;98577.75;4302519;33;33661;-77
2022/11/16 11:49:41;;;;;;;78.97;32.53;;;;;;;9.53;93.16;98576.66;4292185;33;34008;-71
2022/11/16 11:52:16;;;;;;;81.63;33.67;;;;;;;10.19;89.75;98577.66;4290140;33;35075;-71
2022/11/16 11:54:47;;;;;;;89.20;34.13;;;;;;;10.05;89.18;98580.12;4301738;33;34778;-78
2022/11/16 11:57:19;;;;;;;81.07;31.58;;;;;;;9.60;91.34;98574.47;4289841;33;33300;-78
2022/11/16 11:59:51;;;;;;;80.50;33.55;;;;;;;9.80;91.43;98576.34;4288809;33;33676;-80
2022/11/16 12:02:27;;;;;;;90.22;35.22;;;;;;;9.79;91.28;98573.94;4277172;33;34195;-78
2022/11/16 12:05:19;;;;;;;83.57;34.72;;;;;;;9.51;93.30;98570.69;4302059;33;34251;-75
2022/11/16 12:07:53;;;;;;;83.50;34.72;;;;;;;9.74;92.08;98565.78;4289444;33;33592;-79
2022/11/16 12:10:39;;;;;;;86.40;35.50;;;;;;;9.32;96.07;98559.59;4301730;33;34925;-80
2022/11/16 12:13:35;;;;;;;77.75;32.80;;;;;;;9.63;93.78;98565.81;4302814;33;33823;-78
2022/11/16 12:16:10;;;;;;;77.90;32.92;;;;;;;9.37;95.48;98565.00;4301325;33;34803;-79
2022/11/16 12:18:53;;;;;;;86.30;32.80;;;;;;;9.74;93.71;98571.22;4265571;33;33815;-79
2022/11/16 12:21:48;;;;;;;80.68;31.50;;;;;;;9.55;92.75;98563.66;4314371;33;33723;-78
2022/11/16 12:24:34;;;;;;;90.12;34.50;;;;;;;9.39;94.82;98567.44;4317079;33;35044;-78
2022/11/16 12:27:07;;;;;;;78.20;32.38;;;;;;;9.46;94.70;98554.47;4303801;33;33592;-78
2022/11/16 12:29:53;;;;;;;90.57;33.45;;;;;;;9.21;96.76;98560.66;4311230;33;34058;-79
2022/11/16 12:32:53;;;;;;;85.25;34.03;;;;;;;9.40;96.49;98552.84;4287510;33;34130;-74